createdAt,value
2018-04-29T00:00:02.521Z,59.40
2018-04-29T00:00:34.170Z,59.30
2018-04-29T00:01:05.837Z,58.80
2018-04-29T00:01:37.474Z,58.60
2018-04-29T00:02:09.103Z,58.40
2018-04-29T00:02:40.740Z,58.40
2018-04-29T00:03:12.374Z,58.40
2018-04-29T00:03:44.000Z,58.30
2018-04-29T00:04:15.662Z,58.20
2018-04-29T00:04:47.312Z,57.90
2018-04-29T00:05:18.986Z,57.60
2018-04-29T00:05:50.669Z,57.60
2018-04-29T00:06:22.334Z,57.10
2018-04-29T00:06:54.002Z,57.00
2018-04-29T00:07:25.638Z,56.70
2018-04-29T00:07:57.286Z,56.60
2018-04-29T00:08:28.921Z,56.50
2018-04-29T00:09:00.544Z,56.30
2018-04-29T00:09:32.172Z,56.30
2018-04-29T00:10:03.848Z,56.40
2018-04-29T00:10:35.498Z,56.40
2018-04-29T00:11:07.170Z,56.40
2018-04-29T00:11:38.851Z,56.40
2018-04-29T00:12:10.496Z,56.20
2018-04-29T00:12:42.134Z,56.50
2018-04-29T00:13:13.836Z,56.40
2018-04-29T00:13:45.468Z,56.90
2018-04-29T00:14:17.103Z,57.00
2018-04-29T00:14:48.743Z,57.20
2018-04-29T00:15:20.380Z,57.00
2018-04-29T00:15:52.038Z,56.90
2018-04-29T00:16:23.665Z,56.70
2018-04-29T00:16:55.300Z,56.40
2018-04-29T00:17:26.947Z,56.30
2018-04-29T00:17:58.576Z,56.20
2018-04-29T00:18:30.200Z,56.10
2018-04-29T00:19:01.850Z,56.00
2018-04-29T00:19:33.515Z,56.00
2018-04-29T00:20:05.143Z,56.00
2018-04-29T00:20:36.779Z,55.70
2018-04-29T00:21:08.439Z,55.40
2018-04-29T00:21:40.080Z,55.30
2018-04-29T00:22:11.716Z,55.20
2018-04-29T00:22:43.383Z,55.10
2018-04-29T00:23:15.000Z,55.00
2018-04-29T00:23:46.645Z,54.80
2018-04-29T00:24:18.294Z,54.80
2018-04-29T00:24:49.919Z,54.70
2018-04-29T00:25:21.548Z,54.60
2018-04-29T00:25:53.184Z,54.40
2018-04-29T00:26:24.884Z,54.30
2018-04-29T00:26:56.504Z,54.20
2018-04-29T00:27:28.192Z,54.30
2018-04-29T00:27:59.832Z,54.10
2018-04-29T00:28:31.457Z,53.90
2018-04-29T00:29:03.111Z,53.60
2018-04-29T00:29:34.742Z,53.30
2018-04-29T00:30:06.384Z,53.20
2018-04-29T00:30:38.051Z,52.80
2018-04-29T00:31:09.718Z,52.80
2018-04-29T00:31:41.357Z,52.70
2018-04-29T00:32:13.003Z,52.70
2018-04-29T00:32:44.642Z,52.70
2018-04-29T00:33:16.291Z,52.50
2018-04-29T00:33:47.913Z,53.30
2018-04-29T00:34:19.555Z,53.30
2018-04-29T00:34:51.192Z,53.30
2018-04-29T00:35:22.821Z,52.40
2018-04-29T00:35:54.446Z,52.50
2018-04-29T00:36:26.080Z,52.60
2018-04-29T00:36:57.701Z,52.90
2018-04-29T00:37:29.318Z,53.00
2018-04-29T00:38:00.975Z,53.10
2018-04-29T00:38:32.641Z,53.30
2018-04-29T00:39:04.303Z,53.60
2018-04-29T00:39:35.927Z,53.80
2018-04-29T00:40:07.540Z,53.60
2018-04-29T00:40:39.176Z,53.40
2018-04-29T00:41:10.822Z,53.40
2018-04-29T00:41:42.478Z,53.40
2018-04-29T00:42:14.127Z,52.80
2018-04-29T00:42:45.800Z,53.30
2018-04-29T00:43:17.436Z,53.00
2018-04-29T00:43:49.112Z,52.80
2018-04-29T00:44:20.769Z,52.70
2018-04-29T00:44:52.426Z,52.70
2018-04-29T00:45:24.057Z,52.60
2018-04-29T00:45:55.694Z,52.30
2018-04-29T00:46:27.312Z,52.10
2018-04-29T00:46:58.944Z,52.20
2018-04-29T00:47:30.568Z,52.30
2018-04-29T00:48:02.207Z,52.30
2018-04-29T00:48:33.828Z,52.30
2018-04-29T00:49:05.476Z,52.20
2018-04-29T00:49:37.088Z,52.00
2018-04-29T00:50:08.764Z,51.80
2018-04-29T00:50:40.396Z,51.90
2018-04-29T00:51:12.058Z,52.10
2018-04-29T00:52:01.068Z,52.30
2018-04-29T00:52:32.704Z,52.40
2018-04-29T00:53:04.316Z,52.30
2018-04-29T00:53:35.947Z,52.30
2018-04-29T00:54:07.619Z,52.60
2018-04-29T00:54:39.276Z,52.70
2018-04-29T00:55:10.931Z,53.10
2018-04-29T00:55:42.621Z,53.30
2018-04-29T00:56:14.330Z,52.70
2018-04-29T00:56:45.960Z,52.90
2018-04-29T00:57:17.586Z,53.10
2018-04-29T00:57:49.237Z,53.10
2018-04-29T00:58:20.894Z,53.10
2018-04-29T00:58:52.522Z,53.20
2018-04-29T00:59:30.281Z,53.10
2018-04-29T01:00:01.951Z,53.10
2018-04-29T01:00:33.656Z,52.80
2018-04-29T01:01:05.316Z,52.80
2018-04-29T01:01:36.974Z,52.70
2018-04-29T01:02:08.604Z,52.60
2018-04-29T01:02:40.240Z,52.50
2018-04-29T01:03:11.884Z,53.30
2018-04-29T01:03:43.526Z,53.30
2018-04-29T01:04:15.276Z,53.20
2018-04-29T01:04:46.954Z,53.20
2018-04-29T01:05:18.583Z,53.20
2018-04-29T01:05:50.238Z,53.00
2018-04-29T01:06:21.904Z,52.90
2018-04-29T01:06:53.539Z,52.90
2018-04-29T01:07:25.232Z,52.70
2018-04-29T01:07:56.822Z,52.50
2018-04-29T01:08:28.486Z,52.30
2018-04-29T01:09:00.132Z,52.10
2018-04-29T01:09:31.770Z,51.80
2018-04-29T01:10:03.423Z,51.60
2018-04-29T01:10:35.056Z,51.40
2018-04-29T01:11:06.688Z,51.40
2018-04-29T01:11:38.338Z,51.20
2018-04-29T01:12:09.958Z,51.00
2018-04-29T01:12:41.618Z,51.00
2018-04-29T01:13:13.256Z,50.90
2018-04-29T01:13:44.902Z,50.90
2018-04-29T01:14:16.558Z,50.80
2018-04-29T01:14:48.200Z,50.80
2018-04-29T01:15:19.864Z,50.80
2018-04-29T01:15:51.489Z,50.60
2018-04-29T01:16:23.121Z,50.30
2018-04-29T01:16:54.779Z,49.70
2018-04-29T01:17:26.444Z,49.60
2018-04-29T01:17:58.073Z,49.50
2018-04-29T01:18:29.730Z,49.20
2018-04-29T01:19:01.352Z,49.00
2018-04-29T01:19:32.989Z,48.90
2018-04-29T01:20:04.642Z,48.90
2018-04-29T01:20:36.348Z,49.00
2018-04-29T01:21:08.002Z,48.90
2018-04-29T01:21:39.642Z,48.50
2018-04-29T01:22:11.283Z,48.10
2018-04-29T01:22:42.917Z,48.00
2018-04-29T01:23:14.614Z,47.90
2018-04-29T01:23:46.219Z,47.80
2018-04-29T01:24:17.865Z,47.70
2018-04-29T01:24:49.753Z,47.50
2018-04-29T01:25:21.387Z,47.30
2018-04-29T01:25:53.091Z,47.30
2018-04-29T01:26:24.699Z,47.40
2018-04-29T01:26:56.316Z,47.10
2018-04-29T01:27:27.955Z,46.90
2018-04-29T01:27:59.591Z,46.80
2018-04-29T01:28:31.249Z,46.60
2018-04-29T01:29:02.885Z,46.60
2018-04-29T01:29:34.501Z,46.60
2018-04-29T01:30:06.167Z,46.70
2018-04-29T01:30:37.893Z,46.70
2018-04-29T01:31:09.508Z,47.00
2018-04-29T01:31:41.135Z,46.80
2018-04-29T01:32:12.771Z,46.70
2018-04-29T01:32:44.385Z,46.80
2018-04-29T01:33:16.014Z,46.90
2018-04-29T01:33:47.662Z,46.80
2018-04-29T01:34:19.301Z,46.90
2018-04-29T01:34:50.939Z,46.90
2018-04-29T01:35:22.553Z,46.70
2018-04-29T01:35:54.228Z,46.40
2018-04-29T01:36:25.863Z,46.40
2018-04-29T01:36:57.507Z,46.20
2018-04-29T01:37:29.155Z,46.10
2018-04-29T01:38:00.794Z,46.10
2018-04-29T01:38:32.411Z,46.10
2018-04-29T01:39:04.090Z,46.20
2018-04-29T01:39:35.739Z,46.00
2018-04-29T01:40:07.368Z,46.00
2018-04-29T01:40:39.040Z,46.00
2018-04-29T01:41:10.655Z,46.20
2018-04-29T01:41:42.343Z,46.00
2018-04-29T01:42:13.993Z,45.90
2018-04-29T01:42:45.639Z,45.80
2018-04-29T01:43:17.264Z,45.40
2018-04-29T01:43:48.891Z,45.30
2018-04-29T01:44:20.518Z,45.30
2018-04-29T01:44:52.165Z,45.30
2018-04-29T01:45:23.795Z,45.30
2018-04-29T01:45:55.434Z,45.40
2018-04-29T01:46:27.049Z,45.20
2018-04-29T01:46:58.679Z,44.80
2018-04-29T01:47:30.325Z,44.60
2018-04-29T01:48:01.941Z,44.30
2018-04-29T01:48:33.560Z,44.20
2018-04-29T01:49:05.210Z,44.30
2018-04-29T01:49:36.852Z,44.20
2018-04-29T01:50:08.506Z,44.20
2018-04-29T01:50:40.112Z,44.00
2018-04-29T01:51:11.746Z,43.90
2018-04-29T01:51:43.465Z,44.10
2018-04-29T01:52:15.088Z,43.80
2018-04-29T01:52:46.712Z,43.90
2018-04-29T01:53:18.350Z,44.00
2018-04-29T01:53:49.990Z,43.80
2018-04-29T01:54:21.624Z,43.60
2018-04-29T01:54:53.248Z,43.50
2018-04-29T01:56:25.150Z,43.40
2018-04-29T01:56:56.790Z,43.30
2018-04-29T01:57:28.432Z,43.20
2018-04-29T01:58:00.080Z,43.10
2018-04-29T01:58:31.698Z,42.80
2018-04-29T01:59:03.318Z,42.80
2018-04-29T01:59:34.956Z,42.90
2018-04-29T02:00:06.640Z,43.00
2018-04-29T02:00:38.298Z,42.90
2018-04-29T02:01:09.923Z,43.00
2018-04-29T02:01:41.568Z,42.90
2018-04-29T02:02:13.220Z,43.00
2018-04-29T02:02:44.854Z,42.90
2018-04-29T02:03:16.470Z,42.90
2018-04-29T02:03:48.104Z,42.70
2018-04-29T02:04:19.744Z,42.80
2018-04-29T02:04:51.375Z,42.90
2018-04-29T02:05:23.002Z,42.90
2018-04-29T02:05:54.640Z,42.90
2018-04-29T02:06:26.267Z,42.90
2018-04-29T02:06:57.898Z,42.80
2018-04-29T02:07:29.538Z,42.90
2018-04-29T02:08:01.191Z,42.90
2018-04-29T02:08:32.840Z,43.00
2018-04-29T02:09:04.528Z,42.90
2018-04-29T02:09:36.151Z,43.20
2018-04-29T02:10:07.763Z,43.30
2018-04-29T02:10:39.384Z,43.30
2018-04-29T02:11:11.032Z,43.40
2018-04-29T02:11:42.653Z,43.50
2018-04-29T02:12:14.284Z,43.50
2018-04-29T02:12:45.922Z,43.60
2018-04-29T02:13:17.582Z,43.40
2018-04-29T02:13:49.212Z,43.50
2018-04-29T02:14:20.868Z,43.30
2018-04-29T02:14:52.503Z,43.20
2018-04-29T02:15:24.126Z,43.30
2018-04-29T02:15:55.760Z,43.30
2018-04-29T02:16:27.402Z,43.40
2018-04-29T02:16:59.036Z,43.50
2018-04-29T02:17:30.682Z,43.60
2018-04-29T02:18:02.286Z,43.80
2018-04-29T02:18:33.936Z,44.00
2018-04-29T02:19:05.600Z,44.00
2018-04-29T02:19:37.251Z,44.40
2018-04-29T02:20:08.867Z,44.60
2018-04-29T02:20:40.498Z,45.10
2018-04-29T02:21:12.118Z,45.30
2018-04-29T02:21:43.766Z,45.30
2018-04-29T02:22:15.390Z,45.50
2018-04-29T02:22:47.024Z,45.30
2018-04-29T02:23:18.660Z,45.30
2018-04-29T02:23:50.310Z,45.30
2018-04-29T02:24:21.942Z,45.10
2018-04-29T02:24:53.576Z,45.20
2018-04-29T02:25:25.196Z,45.30
2018-04-29T02:25:56.824Z,45.30
2018-04-29T02:26:28.457Z,45.50
2018-04-29T02:27:00.079Z,45.80
2018-04-29T02:27:31.721Z,45.90
2018-04-29T02:28:03.349Z,46.00
2018-04-29T02:28:34.990Z,46.00
2018-04-29T02:29:06.632Z,46.10
2018-04-29T02:29:38.275Z,46.10
2018-04-29T02:30:09.904Z,46.20
2018-04-29T02:30:41.514Z,46.30
2018-04-29T02:31:13.139Z,46.30
2018-04-29T02:31:44.757Z,46.50
2018-04-29T02:32:16.406Z,46.30
2018-04-29T02:32:48.052Z,46.30
2018-04-29T02:33:19.717Z,46.30
2018-04-29T02:33:51.379Z,46.20
2018-04-29T02:34:22.997Z,46.10
2018-04-29T02:34:54.627Z,45.90
2018-04-29T02:35:26.288Z,45.60
2018-04-29T02:35:57.927Z,45.60
2018-04-29T02:36:29.547Z,45.50
2018-04-29T02:37:01.168Z,45.30
2018-04-29T02:37:32.825Z,45.50
2018-04-29T02:38:04.474Z,45.50
2018-04-29T02:38:36.075Z,45.40
2018-04-29T02:39:07.709Z,44.10
2018-04-29T02:39:39.351Z,44.30
2018-04-29T02:40:10.985Z,44.20
2018-04-29T02:40:42.617Z,44.30
2018-04-29T02:41:14.269Z,44.30
2018-04-29T02:41:45.895Z,44.50
2018-04-29T02:42:17.539Z,44.50
2018-04-29T02:42:49.167Z,44.60
2018-04-29T02:43:20.801Z,44.80
2018-04-29T02:43:52.502Z,45.00
2018-04-29T02:44:24.083Z,45.20
2018-04-29T02:44:55.710Z,45.30
2018-04-29T02:45:27.361Z,45.60
2018-04-29T02:45:59.003Z,45.90
2018-04-29T02:46:30.626Z,46.20
2018-04-29T02:47:02.246Z,46.40
2018-04-29T02:47:33.875Z,46.60
2018-04-29T02:48:05.509Z,46.70
2018-04-29T02:48:37.143Z,46.70
2018-04-29T02:49:08.792Z,46.70
2018-04-29T02:49:40.440Z,46.50
2018-04-29T02:50:12.085Z,46.60
2018-04-29T02:50:43.705Z,46.00
2018-04-29T02:51:15.369Z,46.20
2018-04-29T02:51:47.015Z,46.20
2018-04-29T02:52:18.653Z,46.20
2018-04-29T02:52:50.276Z,46.20
2018-04-29T02:53:21.911Z,46.20
2018-04-29T02:53:53.537Z,46.10
2018-04-29T02:54:25.205Z,45.90
2018-04-29T02:54:56.815Z,45.80
2018-04-29T02:55:28.444Z,45.80
2018-04-29T02:56:00.079Z,45.80
2018-04-29T02:56:31.738Z,45.80
2018-04-29T02:57:03.449Z,45.80
2018-04-29T02:57:35.118Z,45.80
2018-04-29T02:58:06.761Z,45.80
2018-04-29T02:58:38.399Z,46.00
2018-04-29T02:59:10.036Z,45.90
2018-04-29T02:59:41.689Z,45.50
2018-04-29T03:00:13.318Z,45.70
2018-04-29T03:00:44.954Z,45.70
2018-04-29T03:01:16.600Z,45.80
2018-04-29T03:01:48.235Z,45.40
2018-04-29T03:02:19.867Z,45.10
2018-04-29T03:02:51.475Z,45.10
2018-04-29T03:03:23.108Z,45.00
2018-04-29T03:03:54.751Z,45.10
2018-04-29T03:04:26.402Z,44.90
2018-04-29T03:04:58.027Z,45.40
2018-04-29T03:05:29.652Z,45.50
2018-04-29T03:06:01.297Z,45.50
2018-04-29T03:06:32.963Z,45.40
2018-04-29T03:07:04.616Z,45.40
2018-04-29T03:07:36.267Z,45.20
2018-04-29T03:08:07.960Z,45.30
2018-04-29T03:08:39.623Z,45.20
2018-04-29T03:09:11.239Z,45.10
2018-04-29T03:09:42.888Z,44.90
2018-04-29T03:10:14.523Z,44.80
2018-04-29T03:10:46.172Z,44.80
2018-04-29T03:11:17.829Z,44.70
2018-04-29T03:11:49.463Z,44.60
2018-04-29T03:12:21.081Z,44.50
2018-04-29T03:12:52.723Z,44.40
2018-04-29T03:13:24.431Z,44.20
2018-04-29T03:13:56.050Z,44.00
2018-04-29T03:14:27.679Z,44.00
2018-04-29T03:14:59.323Z,44.10
2018-04-29T03:15:30.979Z,43.90
2018-04-29T03:16:02.649Z,44.00
2018-04-29T03:16:34.313Z,44.10
2018-04-29T03:17:05.966Z,44.00
2018-04-29T03:17:37.595Z,44.10
2018-04-29T03:18:09.214Z,44.00
2018-04-29T03:18:40.853Z,44.00
2018-04-29T03:19:12.486Z,44.00
2018-04-29T03:19:44.123Z,44.00
2018-04-29T03:20:15.750Z,43.90
2018-04-29T03:20:47.360Z,43.60
2018-04-29T03:21:19.016Z,43.30
2018-04-29T03:21:50.649Z,43.20
2018-04-29T03:22:22.278Z,43.20
2018-04-29T03:22:53.899Z,43.20
2018-04-29T03:23:25.538Z,43.20
2018-04-29T03:23:57.174Z,43.20
2018-04-29T03:24:28.812Z,43.00
2018-04-29T03:25:00.430Z,43.50
2018-04-29T03:25:32.074Z,43.80
2018-04-29T03:26:03.715Z,44.10
2018-04-29T03:26:35.366Z,44.40
2018-04-29T03:27:06.990Z,44.60
2018-04-29T03:27:38.619Z,44.80
2018-04-29T03:28:10.245Z,44.90
2018-04-29T03:28:41.858Z,45.10
2018-04-29T03:29:13.481Z,45.00
2018-04-29T03:29:45.101Z,44.70
2018-04-29T03:30:16.725Z,44.50
2018-04-29T03:30:48.369Z,44.40
2018-04-29T03:31:20.003Z,44.30
2018-04-29T03:31:51.625Z,43.90
2018-04-29T03:32:23.286Z,44.00
2018-04-29T03:32:54.937Z,44.00
2018-04-29T03:33:26.570Z,43.80
2018-04-29T03:33:58.205Z,43.70
2018-04-29T03:34:29.844Z,43.70
2018-04-29T03:35:01.493Z,43.80
2018-04-29T03:35:33.136Z,44.00
2018-04-29T03:36:04.754Z,44.00
2018-04-29T03:36:36.367Z,44.00
2018-04-29T03:37:07.992Z,44.10
2018-04-29T03:37:39.628Z,43.80
2018-04-29T03:38:11.269Z,43.40
2018-04-29T03:38:42.910Z,43.20
2018-04-29T03:39:14.546Z,43.20
2018-04-29T03:39:46.184Z,43.30
2018-04-29T03:40:17.838Z,43.30
2018-04-29T03:40:49.465Z,43.20
2018-04-29T03:41:21.087Z,43.30
2018-04-29T03:41:52.746Z,43.30
2018-04-29T03:42:24.374Z,43.40
2018-04-29T03:42:56.020Z,43.50
2018-04-29T03:43:27.662Z,43.40
2018-04-29T03:43:59.300Z,43.00
2018-04-29T03:44:30.947Z,43.20
2018-04-29T03:45:02.606Z,43.20
2018-04-29T03:45:34.235Z,43.10
2018-04-29T03:46:05.874Z,43.20
2018-04-29T03:46:37.536Z,43.30
2018-04-29T03:47:09.170Z,43.30
2018-04-29T03:47:40.804Z,43.20
2018-04-29T03:48:12.443Z,42.90
2018-04-29T03:48:44.087Z,42.60
2018-04-29T03:49:15.724Z,42.60
2018-04-29T03:49:47.350Z,42.50
2018-04-29T03:50:18.991Z,42.60
2018-04-29T03:50:50.628Z,42.60
2018-04-29T03:51:22.253Z,42.70
2018-04-29T03:51:53.900Z,42.80
2018-04-29T03:52:25.578Z,42.90
2018-04-29T03:52:57.220Z,43.20
2018-04-29T03:53:28.917Z,43.10
2018-04-29T03:54:00.566Z,43.00
2018-04-29T03:54:32.216Z,42.90
2018-04-29T03:55:03.836Z,43.20
2018-04-29T03:55:35.462Z,43.30
2018-04-29T03:56:07.130Z,43.30
2018-04-29T03:56:38.768Z,43.20
2018-04-29T03:57:29.234Z,43.20
2018-04-29T03:58:19.539Z,43.30
2018-04-29T03:59:09.683Z,43.50
2018-04-29T03:59:59.838Z,43.60
2018-04-29T04:00:52.751Z,43.30
2018-04-29T04:01:51.282Z,43.20
2018-04-29T04:02:32.943Z,43.30
2018-04-29T04:03:34.766Z,43.50
2018-04-29T04:04:51.652Z,43.60
2018-04-29T04:05:23.306Z,43.70
2018-04-29T04:05:54.960Z,43.50
2018-04-29T04:06:26.636Z,43.00
2018-04-29T04:06:58.276Z,43.20
2018-04-29T04:07:29.928Z,43.10
2018-04-29T04:08:01.547Z,43.10
2018-04-29T04:08:33.188Z,43.20
2018-04-29T04:09:04.866Z,43.30
2018-04-29T04:09:36.514Z,43.30
2018-04-29T04:10:08.166Z,43.40
2018-04-29T04:10:39.833Z,43.30
2018-04-29T04:11:11.481Z,43.00
2018-04-29T04:11:43.153Z,42.80
2018-04-29T04:12:14.795Z,43.50
2018-04-29T04:12:46.552Z,43.80
2018-04-29T04:13:18.216Z,44.00
2018-04-29T04:13:49.844Z,44.00
2018-04-29T04:14:21.498Z,43.90
2018-04-29T04:14:53.152Z,44.00
2018-04-29T04:15:24.800Z,44.10
2018-04-29T04:15:56.443Z,44.20
2018-04-29T04:16:28.066Z,44.20
2018-04-29T04:16:59.712Z,44.10
2018-04-29T04:17:31.355Z,44.00
2018-04-29T04:18:03.052Z,44.00
2018-04-29T04:18:34.692Z,43.90
2018-04-29T04:19:06.329Z,42.70
2018-04-29T04:19:37.969Z,42.00
2018-04-29T04:20:09.604Z,42.30
2018-04-29T04:20:41.282Z,42.60
2018-04-29T04:21:12.916Z,42.60
2018-04-29T04:21:44.553Z,42.70
2018-04-29T04:22:16.188Z,42.60
2018-04-29T04:22:47.833Z,42.00
2018-04-29T04:23:19.473Z,42.30
2018-04-29T04:23:51.199Z,42.30
2018-04-29T04:24:22.762Z,42.10
2018-04-29T04:24:54.421Z,42.00
2018-04-29T04:25:26.066Z,42.10
2018-04-29T04:25:57.696Z,41.60
2018-04-29T04:26:29.326Z,41.70
2018-04-29T04:27:00.986Z,41.70
2018-04-29T04:27:32.604Z,41.90
2018-04-29T04:28:04.256Z,41.60
2018-04-29T04:28:35.894Z,41.60
2018-04-29T04:29:07.527Z,41.70
2018-04-29T04:29:39.168Z,41.50
2018-04-29T04:30:10.813Z,41.10
2018-04-29T04:30:42.432Z,40.90
2018-04-29T04:31:14.063Z,40.60
2018-04-29T04:31:45.679Z,40.60
2018-04-29T04:32:17.295Z,40.70
2018-04-29T04:32:48.934Z,40.90
2018-04-29T04:33:20.608Z,41.00
2018-04-29T04:33:52.254Z,40.60
2018-04-29T04:34:23.922Z,40.30
2018-04-29T04:34:55.554Z,39.70
2018-04-29T04:35:27.223Z,40.10
2018-04-29T04:35:58.877Z,40.20
2018-04-29T04:36:30.492Z,40.30
2018-04-29T04:37:02.126Z,40.40
2018-04-29T04:37:33.766Z,40.40
2018-04-29T04:38:05.424Z,40.40
2018-04-29T04:38:37.076Z,40.20
2018-04-29T04:39:08.715Z,40.00
2018-04-29T04:39:40.344Z,39.60
2018-04-29T04:40:12.058Z,39.50
2018-04-29T04:40:43.614Z,39.50
2018-04-29T04:41:15.238Z,39.50
2018-04-29T04:41:46.887Z,37.70
2018-04-29T04:42:18.523Z,38.70
2018-04-29T04:42:50.160Z,38.40
2018-04-29T04:43:21.790Z,38.70
2018-04-29T04:43:53.409Z,38.90
2018-04-29T04:44:25.026Z,39.10
2018-04-29T04:44:56.648Z,38.90
2018-04-29T04:45:28.288Z,38.10
2018-04-29T04:45:59.913Z,37.80
2018-04-29T04:46:31.524Z,37.80
2018-04-29T04:47:03.148Z,37.80
2018-04-29T04:47:34.807Z,37.60
2018-04-29T04:48:06.452Z,38.00
2018-04-29T04:48:38.094Z,38.60
2018-04-29T04:49:09.728Z,38.80
2018-04-29T04:49:41.352Z,39.30
2018-04-29T04:50:12.988Z,39.20
2018-04-29T04:50:44.620Z,39.50
2018-04-29T04:51:16.231Z,39.30
2018-04-29T04:51:47.830Z,39.10
2018-04-29T04:52:19.482Z,38.10
2018-04-29T04:52:51.100Z,38.20
2018-04-29T04:53:22.788Z,38.10
2018-04-29T04:53:54.420Z,38.20
2018-04-29T04:54:26.060Z,38.00
2018-04-29T04:54:57.683Z,37.80
2018-04-29T04:55:29.302Z,38.00
2018-04-29T04:56:00.970Z,38.20
2018-04-29T04:56:32.620Z,38.30
2018-04-29T04:57:06.018Z,38.10
2018-04-29T04:57:37.648Z,38.30
2018-04-29T04:58:12.399Z,38.40
2018-04-29T04:58:44.008Z,38.50
2018-04-29T04:59:15.626Z,38.60
2018-04-29T04:59:47.265Z,38.80
2018-04-29T05:00:18.912Z,39.00
2018-04-29T05:00:50.540Z,38.90
2018-04-29T05:01:22.162Z,37.20
2018-04-29T05:01:53.791Z,36.60
2018-04-29T05:02:25.416Z,37.10
2018-04-29T05:02:57.036Z,37.80
2018-04-29T05:03:28.663Z,38.90
2018-04-29T05:04:00.275Z,39.20
2018-04-29T05:04:31.909Z,40.60
2018-04-29T05:05:03.556Z,41.50
2018-04-29T05:05:35.196Z,41.80
2018-04-29T05:06:06.842Z,42.10
2018-04-29T05:06:38.475Z,42.30
2018-04-29T05:07:10.104Z,41.50
2018-04-29T05:07:41.726Z,40.70
2018-04-29T05:08:13.361Z,40.20
2018-04-29T05:08:44.980Z,39.80
2018-04-29T05:09:16.610Z,39.70
2018-04-29T05:09:48.259Z,39.90
2018-04-29T05:10:19.896Z,39.90
2018-04-29T05:10:51.552Z,39.90
2018-04-29T05:11:23.197Z,39.60
2018-04-29T05:11:54.820Z,39.20
2018-04-29T05:12:26.477Z,38.80
2018-04-29T05:12:58.112Z,38.80
2018-04-29T05:13:29.768Z,38.70
2018-04-29T05:14:01.434Z,37.90
2018-04-29T05:14:33.057Z,37.20
2018-04-29T05:15:04.688Z,36.40
2018-04-29T05:15:36.328Z,36.10
2018-04-29T05:16:07.972Z,36.00
2018-04-29T05:16:39.624Z,35.80
2018-04-29T05:17:11.278Z,35.80
2018-04-29T05:17:42.902Z,36.10
2018-04-29T05:18:14.521Z,36.20
2018-04-29T05:18:46.178Z,36.00
2018-04-29T05:19:17.808Z,35.90
2018-04-29T05:19:49.455Z,35.80
2018-04-29T05:20:21.076Z,35.80
2018-04-29T05:20:52.718Z,35.90
2018-04-29T05:21:24.351Z,35.80
2018-04-29T05:21:55.981Z,36.00
2018-04-29T05:22:27.612Z,35.30
2018-04-29T05:22:59.224Z,33.80
2018-04-29T05:23:30.857Z,33.20
2018-04-29T05:24:02.532Z,33.10
2018-04-29T05:24:34.177Z,33.20
2018-04-29T05:25:05.822Z,33.80
2018-04-29T05:25:37.447Z,34.10
2018-04-29T05:26:09.087Z,34.20
2018-04-29T05:26:40.716Z,34.40
2018-04-29T05:27:12.404Z,34.10
2018-04-29T05:27:44.097Z,33.80
2018-04-29T05:28:15.766Z,32.70
2018-04-29T05:28:47.420Z,32.40
2018-04-29T05:29:19.045Z,32.40
2018-04-29T05:29:50.679Z,32.00
2018-04-29T05:30:22.307Z,32.10
2018-04-29T05:30:53.926Z,32.30
2018-04-29T05:31:25.590Z,32.60
2018-04-29T05:31:57.258Z,32.70
2018-04-29T05:32:28.900Z,32.50
2018-04-29T05:33:00.523Z,32.10
2018-04-29T05:33:32.161Z,31.60
2018-04-29T05:34:03.804Z,31.10
2018-04-29T05:34:35.438Z,31.20
2018-04-29T05:35:07.079Z,31.20
2018-04-29T05:35:38.700Z,31.20
2018-04-29T05:36:10.338Z,31.30
2018-04-29T05:36:41.994Z,31.50
2018-04-29T05:37:13.616Z,31.90
2018-04-29T05:37:45.246Z,32.20
2018-04-29T05:38:16.861Z,32.30
2018-04-29T05:38:48.507Z,32.30
2018-04-29T05:39:20.144Z,32.30
2018-04-29T05:39:51.814Z,32.10
2018-04-29T05:40:23.439Z,32.10
2018-04-29T05:40:55.068Z,32.20
2018-04-29T05:41:26.709Z,32.30
2018-04-29T05:41:58.328Z,32.00
2018-04-29T05:42:29.984Z,31.60
2018-04-29T05:43:01.635Z,31.60
2018-04-29T05:43:33.248Z,31.30
2018-04-29T05:44:04.864Z,31.10
2018-04-29T05:44:36.512Z,31.00
2018-04-29T05:45:08.143Z,30.80
2018-04-29T05:45:39.786Z,30.70
2018-04-29T05:46:11.424Z,30.20
2018-04-29T05:46:43.081Z,30.40
2018-04-29T05:47:14.730Z,30.10
2018-04-29T05:47:46.354Z,30.20
2018-04-29T05:48:17.988Z,29.50
2018-04-29T05:48:49.650Z,29.10
2018-04-29T05:49:21.318Z,28.00
2018-04-29T05:49:52.964Z,27.70
2018-04-29T05:50:24.593Z,27.90
2018-04-29T05:50:56.242Z,28.20
2018-04-29T05:51:27.902Z,28.60
2018-04-29T05:51:59.527Z,28.80
2018-04-29T05:52:31.157Z,28.70
2018-04-29T05:53:02.892Z,28.50
2018-04-29T05:53:34.511Z,28.60
2018-04-29T05:54:06.163Z,28.10
2018-04-29T05:54:37.781Z,27.30
2018-04-29T05:55:09.448Z,26.80
2018-04-29T05:55:41.100Z,26.60
2018-04-29T05:56:12.740Z,26.00
2018-04-29T05:56:44.377Z,25.30
2018-04-29T05:57:15.995Z,25.40
2018-04-29T05:57:47.604Z,25.60
2018-04-29T05:58:19.214Z,25.40
2018-04-29T05:58:50.835Z,25.80
2018-04-29T05:59:22.475Z,25.60
2018-04-29T05:59:54.113Z,25.20
2018-04-29T06:00:25.752Z,25.00
2018-04-29T06:00:57.358Z,23.70
2018-04-29T06:01:28.978Z,23.50
2018-04-29T06:02:00.621Z,24.10
2018-04-29T06:02:32.253Z,24.40
2018-04-29T06:03:03.899Z,23.50
2018-04-29T06:03:35.511Z,22.70
2018-04-29T06:04:07.147Z,23.10
2018-04-29T06:04:38.786Z,23.60
2018-04-29T06:05:10.419Z,23.80
2018-04-29T06:05:42.057Z,24.30
2018-04-29T06:06:13.683Z,24.20
2018-04-29T06:06:45.359Z,24.30
2018-04-29T06:07:16.990Z,23.90
2018-04-29T06:07:48.621Z,22.80
2018-04-29T06:08:20.255Z,23.00
2018-04-29T06:08:51.882Z,22.60
2018-04-29T06:09:23.548Z,22.70
2018-04-29T06:09:55.177Z,22.90
2018-04-29T06:10:26.810Z,22.70
2018-04-29T06:10:58.468Z,22.70
2018-04-29T06:11:30.087Z,23.10
2018-04-29T06:12:01.724Z,23.20
2018-04-29T06:12:33.359Z,23.30
2018-04-29T06:13:04.977Z,21.50
2018-04-29T06:13:36.591Z,21.60
2018-04-29T06:14:08.287Z,22.30
2018-04-29T06:14:39.871Z,22.80
2018-04-29T06:15:11.525Z,23.10
2018-04-29T06:15:43.165Z,23.20
2018-04-29T06:16:14.799Z,23.50
2018-04-29T06:16:46.431Z,23.50
2018-04-29T06:17:18.075Z,23.30
2018-04-29T06:17:49.721Z,22.00
2018-04-29T06:18:21.385Z,21.70
2018-04-29T06:18:53.013Z,21.90
2018-04-29T06:19:24.655Z,21.80
2018-04-29T06:19:56.283Z,21.80
2018-04-29T06:20:27.983Z,20.10
2018-04-29T06:20:59.585Z,20.30
2018-04-29T06:21:31.220Z,19.30
2018-04-29T06:22:02.871Z,20.00
2018-04-29T06:22:34.502Z,20.90
2018-04-29T06:23:06.132Z,21.20
2018-04-29T06:23:37.748Z,21.40
2018-04-29T06:24:09.396Z,21.10
2018-04-29T06:24:41.045Z,21.50
2018-04-29T06:25:12.669Z,21.00
2018-04-29T06:25:44.289Z,21.00
2018-04-29T06:26:15.958Z,21.00
2018-04-29T06:26:47.567Z,20.10
2018-04-29T06:27:19.169Z,18.80
2018-04-29T06:27:50.812Z,18.80
2018-04-29T06:28:22.440Z,16.60
2018-04-29T06:28:54.075Z,16.70
2018-04-29T06:29:25.711Z,17.70
2018-04-29T06:29:57.337Z,17.30
2018-04-29T06:30:28.947Z,16.30
2018-04-29T06:31:00.596Z,16.90
2018-04-29T06:31:32.254Z,17.70
2018-04-29T06:32:03.928Z,17.80
2018-04-29T06:32:35.567Z,18.00
2018-04-29T06:33:07.197Z,18.00
2018-04-29T06:33:38.818Z,18.00
2018-04-29T06:34:10.459Z,16.00
2018-04-29T06:34:42.097Z,16.10
2018-04-29T06:35:13.722Z,15.00
2018-04-29T06:35:45.351Z,15.30
2018-04-29T06:36:16.977Z,15.70
2018-04-29T06:36:48.631Z,16.00
2018-04-29T06:37:20.344Z,16.10
2018-04-29T06:37:51.945Z,15.60
2018-04-29T06:38:23.589Z,16.00
2018-04-29T06:38:55.327Z,16.00
2018-04-29T06:39:26.864Z,15.90
2018-04-29T06:39:58.485Z,15.50
2018-04-29T06:40:30.121Z,16.00
2018-04-29T06:41:01.802Z,15.90
2018-04-29T06:41:33.439Z,16.70
2018-04-29T06:42:05.053Z,15.30
2018-04-29T06:42:36.729Z,15.50
2018-04-29T06:43:08.372Z,15.30
2018-04-29T06:43:40.001Z,14.70
2018-04-29T06:44:11.619Z,14.90
2018-04-29T06:44:43.228Z,14.70
2018-04-29T06:45:14.870Z,15.30
2018-04-29T06:45:46.502Z,16.10
2018-04-29T06:46:18.187Z,15.10
2018-04-29T06:46:49.822Z,14.70
2018-04-29T06:47:21.462Z,15.00
2018-04-29T06:47:53.090Z,15.30
2018-04-29T06:48:24.706Z,15.30
2018-04-29T06:48:56.323Z,15.30
2018-04-29T06:49:27.968Z,15.50
2018-04-29T06:49:59.607Z,14.80
2018-04-29T06:50:31.322Z,13.80
2018-04-29T06:51:02.971Z,13.70
2018-04-29T06:51:34.586Z,13.70
2018-04-29T06:52:06.235Z,13.90